Flight Track Log - Related Links

Times and Time Zones

All times are in EDT time to prevent confusion due to time zone crossing. See the C-GYPG flight status page for this flight to view local times or setup timezone preferences in your user account.

Time Position Orientation Groundspeed Altitude Reporting Facility
EDT Latitude Longitude Course Direction KTS MPH feet Rate Location/Type
Sat 10:48:18 AM 50.0167 -97.0500 128° Southeast 80 92 1,400  Level Winnipeg Center
Sat 10:49:18 AM 50.0000 -97.0167 128° Southeast 80 92 2,000 500 Climbing Winnipeg Center
Sat 10:50:18 AM 49.9833 -97.0167 180° South 80 92 2,400 450 Climbing Winnipeg Center
Sat 10:51:18 AM 49.9500 -97.0167 180° South 80 92 2,900 350 Climbing Winnipeg Center
Sat 10:52:18 AM 49.9333 -97.0500 232° Southwest 90 104 3,100 100 Climbing Winnipeg Center
Sat 10:53:18 AM 49.9333 -97.1000 270° West 100 115 3,100  Level Winnipeg Center
Sat 10:54:18 AM 49.9333 -97.1167 270° West 110 127 3,100 -50 Level Winnipeg Center
Sat 10:55:18 AM 49.9333 -97.1667 270° West 110 127 3,000 -50 Descending Winnipeg Center
Sat 10:56:18 AM 49.9333 -97.2333 270° West 110 127 3,000 50 Level Winnipeg Center
Sat 10:57:18 AM 49.9333 -97.2833 270° West 100 115 3,100 50 Climbing Winnipeg Center
Sat 10:58:18 AM 49.9500 -97.3000 327° Northwest 100 115 3,100  Level Winnipeg Center
Sat 10:59:18 AM 49.9500 -97.3500 270° West 110 127 3,100  Level Winnipeg Center
Sat 11:00:18 AM 49.9667 -97.3500 360° North 100 115 3,100  Level Winnipeg Center
Sat 11:01:18 AM 49.9667 -97.3333 90° East 120 138 3,100 -50 Level Winnipeg Center
Sat 11:02:18 AM 49.9333 -97.3000 147° Southeast 120 138 3,000 -50 Descending Winnipeg Center
Sat 11:03:18 AM 49.9333 -97.3333 270° West 100 115 3,000 50 Level Winnipeg Center
Sat 11:04:18 AM 49.9667 -97.3833 316° Northwest 100 115 3,100 50 Climbing Winnipeg Center
Sat 11:05:18 AM 49.9833 -97.3500 52° Northeast 110 127 3,100  Level Winnipeg Center
Sat 11:06:18 AM 49.9500 -97.3333 162° South 120 138 3,100  Level Winnipeg Center
Sat 11:07:18 AM 49.9333 -97.3000 128° Southeast 130 150 3,100  Level Winnipeg Center
Sat 11:08:18 AM 49.9333 -97.3500 270° West 100 115 3,100  Level Winnipeg Center
Sat 11:09:18 AM 49.9667 -97.3833 327° Northwest 100 115 3,100 -50 Level Winnipeg Center
Sat 11:10:18 AM 49.9833 -97.3833 360° North 110 127 3,000 -50 Descending Winnipeg Center
Sat 11:11:18 AM 49.9667 -97.3333 117° Southeast 120 138 3,000  Level Winnipeg Center
Sat 11:12:18 AM 49.9333 -97.3000 147° Southeast 110 127 3,000  Level Winnipeg Center
Sat 11:13:18 AM 49.9333 -97.3500 270° West 110 127 3,000  Level Winnipeg Center
Sat 11:14:18 AM 49.9500 -97.3833 308° West 110 127 3,000 50 Level Winnipeg Center
Sat 11:15:18 AM 49.9667 -97.4000 327° Northwest 110 127 3,100  Climbing Winnipeg Center
Sat 11:16:18 AM 49.9833 -97.4667 291° West 110 127 3,000 -50 Descending Winnipeg Center
Sat 11:17:18 AM 50.0167 -97.4333 33° Northeast 100 115 3,000  Level Winnipeg Center
Sat 11:18:18 AM 50.0000 -97.4000 128° Southeast 130 150 3,000  Level Winnipeg Center
Sat 11:19:18 AM 49.9833 -97.3833 147° Southeast 110 127 3,000 -200 Level Winnipeg Center
Sat 11:20:18 AM 49.9667 -97.3333 117° Southeast 110 127 2,600 -500 Descending Winnipeg Center
Sat 11:21:18 AM 49.9500 -97.3000 128° Southeast 110 127 2,000 -600 Descending Winnipeg Center
Sat 11:22:18 AM 49.9167 -97.2833 162° South 110 127 1,400  Descending Winnipeg Center
Sat 11:24:18 AM 49.9000 -97.2000 107° East 100 115 2,000 400 Climbing Winnipeg Center
Sat 11:25:18 AM 49.9000 -97.1500 90° East 100 115 2,600 500 Climbing Winnipeg Center
Sat 11:26:18 AM 49.9000 -97.1000 90° East 100 115 3,000 200 Climbing Winnipeg Center
Sat 11:27:18 AM 49.9167 -97.0667 52° Northeast 110 127 3,000 -50 Level Winnipeg Center
Sat 11:28:18 AM 49.9500 -97.0500 18° North 110 127 2,900 50 Descending Winnipeg Center
Sat 11:29:18 AM 49.9667 -97.0500 360° North 100 115 3,100 50 Climbing Winnipeg Center
Sat 11:30:18 AM 50.0000 -97.0167 33° Northeast 100 115 3,000  Descending Winnipeg Center
Sat 11:31:18 AM 50.0167 -97.0000 33° Northeast 110 127 3,100  Climbing Winnipeg Center
Sat 11:32:18 AM 50.0500 -96.9667 33° Northeast 110 127 3,000 -50 Descending Winnipeg Center
Sat 11:33:18 AM 50.0667 -96.9333 52° Northeast 110 127 3,000 50 Level Winnipeg Center
Sat 11:34:18 AM 50.1000 -96.9333 360° North 110 127 3,100  Climbing Winnipeg Center
Sat 11:35:18 AM 50.1333 -96.9167 18° North 110 127 3,000  Descending Winnipeg Center
Sat 11:36:18 AM 50.1500 -96.8833 52° Northeast 100 115 3,100 50 Climbing Winnipeg Center
Sat 11:37:18 AM 50.1833 -96.8833 360° North 100 115 3,100  Level Winnipeg Center
Sat 11:38:18 AM 50.2000 -96.8667 33° Northeast 70 81 3,100  Level Winnipeg Center
Sat 11:39:18 AM 50.2000 -96.9167 270° West 90 104 3,100  Level Winnipeg Center
Sat 11:40:18 AM 50.2000 -96.9333 270° West 90 104 3,100 -100 Level Winnipeg Center
Sat 11:41:18 AM 50.2000 -97.0000 270° West 90 104 2,900 -250 Descending Winnipeg Center
Sat 11:42:18 AM 50.1833 -97.0000 180° South 110 127 2,600 -300 Descending Winnipeg Center
Sat 11:43:18 AM 50.1500 -97.0000 180° South 110 127 2,300 -300 Descending Winnipeg Center
Sat 11:44:18 AM 50.1167 -97.0167 198° South 100 115 2,000 -350 Descending Winnipeg Center
Sat 11:45:18 AM 50.1000 -97.0167 180° South 110 127 1,600 -400 Descending Winnipeg Center
Sat 11:46:18 AM 50.0667 -97.0167 180° South 100 115 1,200 -350 Descending Winnipeg Center
Sat 11:47:18 AM 50.0500 -97.0167 180° South 70 81 900 -300 Descending Winnipeg Center

Login

Don't have an account? Register now (free) for customized features, flight alerts, and more!